Terminal Aerodrome Forecast
Issued by NWS

Current Version | Previous Version | Text Only | Print | Product List | Glossary On
Versions: 1 2 3 4 5 6 7 8 9 10 11 12
000
FTUS45 KTFX 271742
TAFCTB
TAF
KCTB 271742Z 2718/2818 VRB05KT P6SM SCT080
     FM272200 07012KT P6SM SCT070 BKN090
      TEMPO 2723/2802 VRB15G35KT P6SM -TSRA BKN060CB
     FM280400 05005KT P6SM BKN100=

USA.gov is the U.S. government's official web portal to all federal, state and local government web resources and services.